createdAt,value
2022-09-06T00:00:25.068Z,96210.16
2022-09-06T00:02:52.447Z,96225.47
2022-09-06T00:05:19.882Z,96267.19
2022-09-06T00:07:46.975Z,96283.16
2022-09-06T00:10:15.086Z,96296.44
2022-09-06T00:12:42.313Z,96306.59
2022-09-06T00:15:09.885Z,96331.38
2022-09-06T00:17:37.324Z,96318.28
2022-09-06T00:20:05.964Z,96346.31
2022-09-06T00:22:33.050Z,96349.59
2022-09-06T00:25:00.188Z,96344.56
2022-09-06T00:27:28.765Z,96339.00
2022-09-06T00:29:55.925Z,96341.09
2022-09-06T00:32:23.257Z,96341.97
2022-09-06T00:34:50.437Z,96334.53
2022-09-06T00:37:17.556Z,96336.16
2022-09-06T00:39:44.868Z,96321.63
2022-09-06T00:42:13.253Z,96302.78
2022-09-06T00:44:40.623Z,96296.97
2022-09-06T00:47:08.501Z,96282.66
2022-09-06T00:49:44.109Z,96276.16
2022-09-06T00:52:15.240Z,96268.63
2022-09-06T00:54:43.291Z,96239.97
2022-09-06T00:57:11.189Z,96230.22
2022-09-06T00:59:41.469Z,96233.91
2022-09-06T01:02:09.574Z,96235.78
2022-09-06T01:04:39.116Z,96216.06
2022-09-06T01:07:20.534Z,96201.53
2022-09-06T01:09:47.646Z,96178.72
2022-09-06T01:12:36.005Z,96166.09
2022-09-06T01:15:08.504Z,96160.63
2022-09-06T01:17:38.438Z,96133.50
2022-09-06T01:20:20.556Z,96098.00
2022-09-06T01:23:04.683Z,96093.72
2022-09-06T01:25:37.650Z,96102.06
2022-09-06T01:28:23.414Z,96122.16
2022-09-06T01:31:18.053Z,96108.34
2022-09-06T01:34:03.461Z,96122.91
2022-09-06T01:36:49.644Z,96119.66
2022-09-06T01:39:25.211Z,96113.72
2022-09-06T01:41:53.943Z,96105.72
2022-09-06T01:44:23.027Z,96101.91
2022-09-06T01:47:05.255Z,96101.91
2022-09-06T01:50:12.301Z,96094.81
2022-09-06T01:52:48.229Z,96081.59
2022-09-06T01:55:27.494Z,96069.44
2022-09-06T01:58:14.913Z,96068.88
2022-09-06T02:01:01.401Z,96058.84
2022-09-06T02:03:41.092Z,96065.09
2022-09-06T02:06:15.782Z,96053.31
2022-09-06T02:08:53.199Z,96047.69
2022-09-06T02:11:22.108Z,96057.16
2022-09-06T02:13:58.666Z,96059.25
2022-09-06T02:16:30.815Z,96054.41
2022-09-06T02:19:05.145Z,96044.28
2022-09-06T02:21:36.656Z,96040.94
2022-09-06T02:24:08.832Z,96029.63
2022-09-06T02:26:40.781Z,96018.38
2022-09-06T02:29:08.291Z,96016.47
2022-09-06T02:31:58.180Z,96014.94
2022-09-06T02:34:25.351Z,96024.47
2022-09-06T02:36:52.643Z,96020.31
2022-09-06T02:39:19.809Z,96027.91
2022-09-06T02:41:48.219Z,96031.09
2022-09-06T02:44:15.901Z,96033.88
2022-09-06T02:46:43.016Z,96028.84
2022-09-06T02:49:10.152Z,96037.34
2022-09-06T02:51:40.822Z,96030.69
2022-09-06T02:54:07.949Z,96035.47
2022-09-06T02:56:36.584Z,96031.53
2022-09-06T02:59:07.044Z,96032.31
2022-09-06T03:01:34.655Z,96035.28
2022-09-06T03:04:02.174Z,96037.03
2022-09-06T03:06:29.340Z,96041.34
2022-09-06T03:08:56.503Z,96037.88
2022-09-06T03:11:23.717Z,96037.94
2022-09-06T03:13:51.104Z,96027.72
2022-09-06T03:16:19.380Z,96035.97
2022-09-06T03:18:46.963Z,96030.28
2022-09-06T03:21:14.576Z,96035.47
2022-09-06T03:23:41.711Z,96038.00
2022-09-06T03:26:08.895Z,96030.88
2022-09-06T03:28:36.039Z,96031.66
2022-09-06T03:31:03.698Z,96040.00
2022-09-06T03:33:31.069Z,96027.34
2022-09-06T03:36:00.540Z,96032.16
2022-09-06T03:38:28.869Z,96036.03
2022-09-06T03:40:56.394Z,96022.28
2022-09-06T03:43:25.279Z,96028.38
2022-09-06T03:45:54.810Z,96032.38
2022-09-06T03:48:24.064Z,96038.13
2022-09-06T03:50:54.217Z,96021.63
2022-09-06T03:53:22.898Z,96029.38
2022-09-06T03:55:53.129Z,96030.47
2022-09-06T03:58:22.264Z,96036.28
2022-09-06T04:00:50.068Z,96035.69
2022-09-06T04:03:19.415Z,96033.94
2022-09-06T04:05:46.565Z,96033.88
2022-09-06T04:08:13.708Z,96032.38
2022-09-06T04:10:40.979Z,96038.63
2022-09-06T04:13:08.105Z,96033.81
2022-09-06T04:15:35.247Z,96040.38
2022-09-06T04:18:06.018Z,96039.13
2022-09-06T04:20:35.716Z,96038.06
2022-09-06T04:23:02.834Z,96035.66
2022-09-06T04:25:29.984Z,96037.59
2022-09-06T04:27:57.065Z,96033.16
2022-09-06T04:30:24.244Z,96034.53
2022-09-06T04:32:51.349Z,96035.59
2022-09-06T04:35:18.467Z,96045.13
2022-09-06T04:37:45.592Z,96052.69
2022-09-06T04:40:13.317Z,96047.94
2022-09-06T04:42:40.451Z,96032.25
2022-09-06T04:45:08.027Z,96060.78
2022-09-06T04:47:35.227Z,96043.81
2022-09-06T04:50:02.333Z,96048.75
2022-09-06T04:52:30.374Z,96051.41
2022-09-06T04:54:57.796Z,96053.56
2022-09-06T04:57:24.957Z,96051.03
2022-09-06T04:59:52.101Z,96052.00
2022-09-06T05:02:19.286Z,96046.56
2022-09-06T05:04:46.423Z,96050.25
2022-09-06T05:07:13.543Z,96052.81
2022-09-06T05:09:40.649Z,96056.44
2022-09-06T05:12:07.891Z,96064.88
2022-09-06T05:14:35.237Z,96065.75
2022-09-06T05:17:02.325Z,96068.69
2022-09-06T05:19:29.452Z,96069.19
2022-09-06T05:21:56.659Z,96076.22
2022-09-06T05:24:23.786Z,96079.19
2022-09-06T05:26:50.864Z,96092.94
2022-09-06T05:29:18.048Z,96090.50
2022-09-06T05:31:45.193Z,96093.00
2022-09-06T05:34:13.435Z,96088.22
2022-09-06T05:36:41.916Z,96085.47
2022-09-06T05:39:09.084Z,96083.06
2022-09-06T05:41:36.277Z,96081.69
2022-09-06T05:44:04.198Z,96089.34
2022-09-06T05:46:31.577Z,96091.81
2022-09-06T05:49:07.703Z,96089.31
2022-09-06T05:51:34.843Z,96094.81
2022-09-06T05:54:02.001Z,96094.16
2022-09-06T05:56:29.168Z,96092.47
2022-09-06T05:58:56.290Z,96101.03
2022-09-06T06:01:27.850Z,96098.28
2022-09-06T06:04:00.400Z,96095.66
2022-09-06T06:06:30.175Z,96094.81
2022-09-06T06:08:57.407Z,96097.28
2022-09-06T06:11:25.983Z,96092.88
2022-09-06T06:13:53.659Z,96095.19
2022-09-06T06:16:22.337Z,96095.19
2022-09-06T06:18:52.209Z,96084.31
2022-09-06T06:21:25.372Z,96098.44
2022-09-06T06:24:00.685Z,96096.34
2022-09-06T06:26:30.985Z,96093.31
2022-09-06T06:29:01.691Z,96100.44
2022-09-06T06:31:30.283Z,96090.81
2022-09-06T06:33:58.308Z,96091.56
2022-09-06T06:36:30.631Z,96104.50
2022-09-06T06:38:58.456Z,96097.59
2022-09-06T06:41:29.892Z,96100.38
2022-09-06T06:43:59.656Z,96100.69
2022-09-06T06:46:29.316Z,96091.25
2022-09-06T06:48:56.458Z,96092.81
2022-09-06T06:51:29.423Z,96095.25
2022-09-06T06:53:59.969Z,96089.50
2022-09-06T06:56:53.328Z,96109.03
2022-09-06T06:59:20.692Z,96110.31
2022-09-06T07:01:49.887Z,96108.53
2022-09-06T07:04:17.147Z,96107.22
2022-09-06T07:12:29.764Z,96097.09
2022-09-06T07:14:56.869Z,96101.84
2022-09-06T07:17:23.985Z,96093.56
2022-09-06T07:22:39.450Z,96091.47
2022-09-06T07:25:07.713Z,96083.66
2022-09-06T07:27:50.475Z,96078.56
2022-09-06T07:30:19.934Z,96074.34
2022-09-06T07:32:47.222Z,96080.00
2022-09-06T07:35:14.429Z,96088.41
2022-09-06T07:37:41.520Z,96089.97
2022-09-06T07:40:09.708Z,96098.97
2022-09-06T07:42:36.993Z,96100.00
2022-09-06T07:45:05.304Z,96094.56
2022-09-06T07:53:09.647Z,96101.53
2022-09-06T07:55:40.228Z,96103.09
2022-09-06T07:58:07.357Z,96101.63
2022-09-06T08:00:34.638Z,96094.16
2022-09-06T08:03:01.781Z,96097.72
2022-09-06T08:11:03.635Z,96102.03
2022-09-06T08:13:30.733Z,96102.44
2022-09-06T08:16:02.328Z,96095.72
2022-09-06T08:18:29.519Z,96100.13
2022-09-06T08:20:56.651Z,96095.47
2022-09-06T08:23:23.793Z,96093.72
2022-09-06T08:25:58.493Z,96104.94
2022-09-06T08:28:28.767Z,96107.38
2022-09-06T08:31:04.638Z,96116.03
2022-09-06T08:33:31.881Z,96118.91
2022-09-06T08:35:59.196Z,96109.59
2022-09-06T08:38:28.017Z,96107.19
2022-09-06T08:41:07.832Z,96107.69
2022-09-06T08:43:35.362Z,96102.28
2022-09-06T08:46:04.220Z,96106.66
2022-09-06T08:48:34.316Z,96099.72
2022-09-06T08:51:29.139Z,96093.22
2022-09-06T08:54:04.100Z,96102.91
2022-09-06T08:57:10.388Z,96102.50
2022-09-06T08:59:40.382Z,96099.72
2022-09-06T09:02:15.213Z,96098.97
2022-09-06T09:04:56.913Z,96088.59
2022-09-06T09:07:50.119Z,96085.66
2022-09-06T09:10:34.612Z,96081.78
2022-09-06T09:13:07.451Z,96083.34
2022-09-06T09:15:39.665Z,96078.34
2022-09-06T09:18:07.802Z,96081.50
2022-09-06T09:20:34.902Z,96086.47
2022-09-06T09:23:02.075Z,96095.19
2022-09-06T09:25:35.935Z,96093.63
2022-09-06T09:28:03.216Z,96088.63
2022-09-06T09:30:52.519Z,96088.94
2022-09-06T09:33:33.501Z,96102.03
2022-09-06T09:36:09.599Z,96090.50
2022-09-06T09:38:58.169Z,96088.66
2022-09-06T09:41:38.330Z,96089.09
2022-09-06T09:44:16.173Z,96093.28
2022-09-06T09:46:43.841Z,96091.25
2022-09-06T09:49:28.567Z,96084.88
2022-09-06T09:52:09.813Z,96082.53
2022-09-06T09:54:40.165Z,96085.66
2022-09-06T09:57:11.694Z,96093.53
2022-09-06T09:59:45.007Z,96080.66
2022-09-06T10:02:30.270Z,96080.13
2022-09-06T10:05:21.134Z,96094.00
2022-09-06T10:07:50.240Z,96098.84
2022-09-06T10:10:47.567Z,96102.56
2022-09-06T10:13:23.635Z,96083.22
2022-09-06T10:15:53.131Z,96088.16
2022-09-06T10:18:20.449Z,96084.38
2022-09-06T10:20:52.696Z,96092.91
2022-09-06T10:26:38.651Z,96081.06
2022-09-06T10:29:09.638Z,96085.88
2022-09-06T10:31:39.496Z,96083.00
2022-09-06T10:34:28.348Z,96082.38
2022-09-06T10:37:20.103Z,96078.78
2022-09-06T10:39:57.633Z,96085.41
2022-09-06T10:42:46.784Z,96085.22
2022-09-06T10:45:16.767Z,96086.94
2022-09-06T10:48:13.876Z,96083.94
2022-09-06T10:50:44.280Z,96080.53
2022-09-06T10:53:17.814Z,96067.22
2022-09-06T10:55:48.622Z,96074.88
2022-09-06T10:58:26.784Z,96060.75
2022-09-06T11:00:55.257Z,96079.59
2022-09-06T11:06:28.238Z,96069.16
2022-09-06T11:09:09.025Z,96076.03
2022-09-06T11:11:46.032Z,96058.50
2022-09-06T11:14:15.515Z,96065.53
2022-09-06T11:16:57.609Z,96061.97
2022-09-06T11:19:41.008Z,96055.56
2022-09-06T11:22:36.466Z,96056.53
2022-09-06T11:25:39.518Z,96058.56
2022-09-06T11:28:12.946Z,96058.66
2022-09-06T11:30:46.948Z,96059.06
2022-09-06T11:33:26.384Z,96066.03
2022-09-06T11:36:14.171Z,96057.09
2022-09-06T11:38:42.622Z,96050.31
2022-09-06T11:41:17.353Z,96055.34
2022-09-06T11:43:52.774Z,96059.03
2022-09-06T11:46:35.083Z,96059.44
2022-09-06T11:49:07.842Z,96052.16
2022-09-06T11:51:36.667Z,96048.13
2022-09-06T11:54:44.752Z,96040.00
2022-09-06T11:57:20.700Z,96051.88
2022-09-06T11:59:47.760Z,96046.00
2022-09-06T12:02:33.801Z,96042.63
2022-09-06T12:05:01.181Z,96035.47
2022-09-06T12:07:29.935Z,96035.75
2022-09-06T12:09:57.670Z,96036.34
2022-09-06T12:12:45.696Z,96025.91
2022-09-06T12:15:44.360Z,96029.19
2022-09-06T12:18:43.282Z,96028.28
2022-09-06T12:21:30.825Z,96026.88
2022-09-06T12:23:58.166Z,96025.56
2022-09-06T12:26:49.702Z,96020.81
2022-09-06T12:29:26.329Z,96020.53
2022-09-06T12:32:04.539Z,96011.75
2022-09-06T12:34:34.488Z,96016.19
2022-09-06T12:37:07.249Z,96016.25
2022-09-06T12:39:35.041Z,96019.59
2022-09-06T12:42:05.658Z,96012.63
2022-09-06T12:44:36.028Z,96004.06
2022-09-06T12:47:10.715Z,96008.78
2022-09-06T12:49:37.835Z,96009.09
2022-09-06T12:52:15.614Z,95996.59
2022-09-06T12:54:48.784Z,95999.63
2022-09-06T12:57:21.774Z,95990.69
2022-09-06T12:59:54.601Z,95991.09
2022-09-06T13:02:47.863Z,95986.63
2022-09-06T13:05:15.202Z,95971.13
2022-09-06T13:07:46.124Z,95977.31
2022-09-06T13:10:17.379Z,95965.91
2022-09-06T13:12:46.701Z,95956.66
2022-09-06T13:15:19.526Z,95970.97
2022-09-06T13:17:47.273Z,95971.38
2022-09-06T13:20:30.378Z,95965.63
2022-09-06T13:23:12.960Z,95950.13
2022-09-06T13:25:51.873Z,95959.91
2022-09-06T13:28:26.007Z,95958.03
2022-09-06T13:31:14.198Z,95953.47
2022-09-06T13:33:41.885Z,95951.16
2022-09-06T13:36:20.596Z,95931.56
2022-09-06T13:38:47.750Z,95941.31
2022-09-06T13:41:26.727Z,95937.81
2022-09-06T13:44:16.809Z,95948.75
2022-09-06T13:46:44.323Z,95941.63
2022-09-06T13:49:11.586Z,95929.78
2022-09-06T13:51:39.300Z,95928.00
2022-09-06T13:54:11.207Z,95929.00
2022-09-06T13:56:42.555Z,95922.34
2022-09-06T13:59:10.449Z,95922.06
2022-09-06T14:02:21.303Z,95922.53
2022-09-06T14:04:48.573Z,95920.97
2022-09-06T14:07:15.759Z,95933.84
2022-09-06T14:09:42.885Z,95916.19
2022-09-06T14:12:10.526Z,95918.44
2022-09-06T14:14:37.772Z,95914.31
2022-09-06T14:17:05.172Z,95911.78
2022-09-06T14:19:32.663Z,95901.72
2022-09-06T14:21:59.784Z,95900.22
2022-09-06T14:24:27.157Z,95903.56
2022-09-06T14:26:54.381Z,95905.16
2022-09-06T14:29:21.559Z,95907.91
2022-09-06T14:31:49.060Z,95909.31
2022-09-06T14:34:16.552Z,95904.03
2022-09-06T14:36:43.648Z,95907.13
2022-09-06T14:39:11.024Z,95913.13
2022-09-06T14:41:38.224Z,95912.00
2022-09-06T14:44:05.517Z,95907.09
2022-09-06T14:46:32.704Z,95933.38
2022-09-06T14:49:09.937Z,95916.31
2022-09-06T14:51:38.533Z,95918.38
2022-09-06T14:54:07.514Z,95912.44
2022-09-06T14:56:35.903Z,95904.38
2022-09-06T14:59:02.902Z,95903.47
2022-09-06T15:01:37.804Z,95910.81
2022-09-06T15:04:07.841Z,95914.16
2022-09-06T15:06:39.074Z,95924.91
2022-09-06T15:09:07.821Z,95907.22
2022-09-06T15:11:41.323Z,95911.63
2022-09-06T15:14:31.712Z,95902.13
2022-09-06T15:17:04.083Z,95917.78
2022-09-06T15:19:33.767Z,95906.66
2022-09-06T15:22:00.920Z,95907.28
2022-09-06T15:24:28.703Z,95894.13
2022-09-06T15:26:56.375Z,95902.94
2022-09-06T15:29:23.575Z,95900.28
2022-09-06T15:31:51.773Z,95906.84
2022-09-06T15:34:21.169Z,95896.69
2022-09-06T15:36:48.788Z,95905.84
2022-09-06T15:39:16.159Z,95899.47
2022-09-06T15:41:43.388Z,95887.13
2022-09-06T15:44:15.974Z,95884.50
2022-09-06T15:46:43.216Z,95887.50
2022-09-06T15:49:13.540Z,95874.59
2022-09-06T15:51:42.163Z,95884.22
2022-09-06T15:54:10.756Z,95875.31
2022-09-06T15:56:38.006Z,95870.41
2022-09-06T15:59:05.851Z,95866.13
2022-09-06T16:01:34.186Z,95867.09
2022-09-06T16:04:06.597Z,95871.13
2022-09-06T16:06:39.653Z,95874.03
2022-09-06T16:09:09.295Z,95852.13
2022-09-06T16:11:37.131Z,95860.78
2022-09-06T16:14:06.083Z,95864.53
2022-09-06T16:16:34.465Z,95863.00
2022-09-06T16:19:02.428Z,95858.44
2022-09-06T16:21:32.120Z,95859.84
2022-09-06T16:24:02.102Z,95846.03
2022-09-06T16:26:32.835Z,95850.47
2022-09-06T16:29:01.416Z,95845.50
2022-09-06T16:31:29.412Z,95833.03
2022-09-06T16:33:57.810Z,95836.03
2022-09-06T16:36:25.259Z,95837.22
2022-09-06T16:38:52.945Z,95834.16
2022-09-06T16:41:32.206Z,95833.28
2022-09-06T16:43:59.397Z,95835.56
2022-09-06T16:46:29.940Z,95831.63
2022-09-06T16:49:01.467Z,95842.31
2022-09-06T16:51:31.120Z,95833.97
2022-09-06T16:53:59.426Z,95838.06
2022-09-06T16:56:28.596Z,95835.50
2022-09-06T16:59:00.659Z,95822.53
2022-09-06T17:01:29.695Z,95832.94
2022-09-06T17:03:57.512Z,95830.63
2022-09-06T17:06:25.015Z,95824.44
2022-09-06T17:08:52.132Z,95824.34
2022-09-06T17:11:21.075Z,95828.97
2022-09-06T17:13:50.622Z,95820.94
2022-09-06T17:16:38.157Z,95833.28
2022-09-06T17:19:07.001Z,95822.72
2022-09-06T17:21:35.447Z,95826.03
2022-09-06T17:24:04.619Z,95818.94
2022-09-06T17:26:34.512Z,95812.78
2022-09-06T17:29:01.739Z,95802.25
2022-09-06T17:31:29.434Z,95808.69
2022-09-06T17:33:56.933Z,95804.25
2022-09-06T17:36:27.555Z,95802.69
2022-09-06T17:39:10.705Z,95798.00
2022-09-06T17:41:40.536Z,95800.41
2022-09-06T17:44:12.998Z,95799.88
2022-09-06T17:46:57.062Z,95796.47
2022-09-06T17:49:29.079Z,95803.78
2022-09-06T17:51:56.598Z,95799.13
2022-09-06T17:54:24.094Z,95803.13
2022-09-06T17:56:51.301Z,95803.34
2022-09-06T17:59:18.586Z,95810.38
2022-09-06T18:01:46.602Z,95811.91
2022-09-06T18:04:14.396Z,95812.06
2022-09-06T18:06:43.430Z,95821.91
2022-09-06T18:09:14.702Z,95821.34
2022-09-06T18:11:45.596Z,95818.69
2022-09-06T18:14:16.673Z,95837.56
2022-09-06T18:16:49.053Z,95834.56
2022-09-06T18:19:17.969Z,95832.63
2022-09-06T18:21:46.059Z,95831.88
2022-09-06T18:24:16.363Z,95832.81
2022-09-06T18:26:44.394Z,95840.78
2022-09-06T18:29:14.605Z,95846.44
2022-09-06T18:31:42.765Z,95848.72
2022-09-06T18:34:10.128Z,95836.47
2022-09-06T18:36:38.871Z,95843.44
2022-09-06T18:39:06.335Z,95845.88
2022-09-06T18:41:52.726Z,95841.38
2022-09-06T18:44:19.932Z,95834.16
2022-09-06T18:46:47.094Z,95828.34
2022-09-06T18:49:15.398Z,95829.09
2022-09-06T18:51:44.546Z,95828.31
2022-09-06T18:54:11.880Z,95821.50
2022-09-06T18:56:39.105Z,95819.72
2022-09-06T18:59:07.047Z,95822.41
2022-09-06T19:01:34.942Z,95809.69
2022-09-06T19:04:03.923Z,95811.50
2022-09-06T19:06:32.563Z,95811.59
2022-09-06T19:09:01.398Z,95811.41
2022-09-06T19:11:29.255Z,95811.72
2022-09-06T19:13:57.574Z,95806.31
2022-09-06T19:16:27.425Z,95804.78
2022-09-06T19:18:56.061Z,95796.69
2022-09-06T19:21:25.357Z,95794.44
2022-09-06T19:24:11.937Z,95785.78
2022-09-06T19:26:41.696Z,95791.34
2022-09-06T19:29:13.876Z,95775.22
2022-09-06T19:31:42.491Z,95778.22
2022-09-06T19:34:10.194Z,95771.22
2022-09-06T19:36:37.521Z,95771.75
2022-09-06T19:39:07.266Z,95765.47
2022-09-06T19:41:37.965Z,95765.00
2022-09-06T19:44:07.712Z,95764.69
2022-09-06T19:46:35.706Z,95761.59
2022-09-06T19:49:03.397Z,95755.41
2022-09-06T19:51:31.241Z,95764.31
2022-09-06T19:53:59.727Z,95762.75
2022-09-06T19:56:33.235Z,95766.59
2022-09-06T19:59:03.872Z,95762.31
2022-09-06T20:01:33.166Z,95770.47
2022-09-06T20:04:03.316Z,95770.22
2022-09-06T20:06:31.323Z,95761.88
2022-09-06T20:09:00.121Z,95747.34
2022-09-06T20:11:29.971Z,95767.47
2022-09-06T20:13:57.497Z,95763.44
2022-09-06T20:16:25.098Z,95763.72
2022-09-06T20:18:54.442Z,95761.25
2022-09-06T20:21:22.432Z,95754.44
2022-09-06T20:23:51.192Z,95762.84
2022-09-06T20:26:19.559Z,95763.06
2022-09-06T20:28:47.300Z,95758.06
2022-09-06T20:31:17.039Z,95745.91
2022-09-06T20:33:49.329Z,95744.09
2022-09-06T20:36:18.425Z,95745.72
2022-09-06T20:38:46.994Z,95741.97
2022-09-06T20:41:16.689Z,95731.53
2022-09-06T20:43:44.434Z,95728.94
2022-09-06T20:46:14.551Z,95729.22
2022-09-06T20:48:45.021Z,95734.53
2022-09-06T20:51:15.866Z,95729.38
2022-09-06T20:53:43.043Z,95737.00
2022-09-06T20:56:13.205Z,95745.09
2022-09-06T20:58:41.371Z,95744.19
2022-09-06T21:01:11.904Z,95750.38
2022-09-06T21:03:40.438Z,95753.53
2022-09-06T21:06:09.255Z,95746.31
2022-09-06T21:08:41.845Z,95751.50
2022-09-06T21:11:10.511Z,95759.56
2022-09-06T21:13:38.089Z,95766.72
2022-09-06T21:16:06.507Z,95773.44
2022-09-06T21:18:34.726Z,95772.28
2022-09-06T21:21:07.181Z,95772.22
2022-09-06T21:23:37.396Z,95764.50
2022-09-06T21:26:10.050Z,95752.81
2022-09-06T21:28:39.844Z,95745.84
2022-09-06T21:31:15.330Z,95738.34
2022-09-06T21:33:46.098Z,95739.88
2022-09-06T21:36:15.963Z,95741.44
2022-09-06T21:38:45.640Z,95735.47
2022-09-06T21:41:14.695Z,95725.34
2022-09-06T21:43:42.807Z,95722.09
2022-09-06T21:46:15.616Z,95721.78
2022-09-06T21:48:47.893Z,95714.16
2022-09-06T21:51:18.473Z,95717.66
2022-09-06T21:53:48.391Z,95720.69
2022-09-06T21:56:16.486Z,95725.50
2022-09-06T21:58:44.542Z,95720.84
2022-09-06T22:01:11.817Z,95723.06
2022-09-06T22:03:42.205Z,95714.34
2022-09-06T22:06:18.569Z,95701.03
2022-09-06T22:08:47.122Z,95702.81
2022-09-06T22:11:19.974Z,95695.44
2022-09-06T22:13:47.921Z,95703.25
2022-09-06T22:16:22.416Z,95699.19
2022-09-06T22:18:51.371Z,95715.66
2022-09-06T22:21:21.189Z,95722.84
2022-09-06T22:23:52.761Z,95713.38
2022-09-06T22:26:21.086Z,95713.53
2022-09-06T22:28:52.459Z,95712.44
2022-09-06T22:31:19.707Z,95706.22
2022-09-06T22:33:46.873Z,95694.19
2022-09-06T22:36:14.263Z,95698.09
2022-09-06T22:38:41.366Z,95702.91
2022-09-06T22:41:09.295Z,95714.13
2022-09-06T22:43:36.631Z,95721.13
2022-09-06T22:46:10.062Z,95744.84
2022-09-06T22:48:37.287Z,95772.72
2022-09-06T22:51:06.015Z,95804.44
2022-09-06T22:53:33.465Z,95842.31
2022-09-06T22:56:01.471Z,95866.84
2022-09-06T22:58:28.749Z,95867.25
2022-09-06T23:00:56.715Z,95874.66
2022-09-06T23:03:23.980Z,95878.34
2022-09-06T23:05:51.170Z,95840.25
2022-09-06T23:08:18.322Z,95847.13
2022-09-06T23:10:45.476Z,95845.31
2022-09-06T23:13:12.677Z,95824.66
2022-09-06T23:15:40.897Z,95816.81
2022-09-06T23:18:08.507Z,95794.84
2022-09-06T23:20:37.138Z,95769.78
2022-09-06T23:23:05.287Z,95768.63
2022-09-06T23:25:32.432Z,95745.69
2022-09-06T23:28:00.284Z,95742.31
2022-09-06T23:30:27.429Z,95735.16
2022-09-06T23:32:56.334Z,95742.94
2022-09-06T23:35:24.033Z,95734.38
2022-09-06T23:37:51.736Z,95741.16
2022-09-06T23:40:19.516Z,95771.78
2022-09-06T23:42:47.159Z,95765.06
2022-09-06T23:45:14.602Z,95774.78
2022-09-06T23:47:41.798Z,95760.97
2022-09-06T23:50:09.332Z,95763.75
2022-09-06T23:52:36.584Z,95779.31
2022-09-06T23:55:04.108Z,95780.91
2022-09-06T23:57:31.309Z,95786.63
2022-09-06T23:59:58.419Z,95789.59
